createdAt,value
2019-01-08T00:01:28.455Z,100935.74
2019-01-08T00:03:58.000Z,100925.81
2019-01-08T00:06:27.409Z,100914.95
2019-01-08T00:08:56.842Z,100924.63
2019-01-08T00:11:26.369Z,100904.63
2019-01-08T00:13:55.815Z,100913.48
2019-01-08T00:16:25.206Z,100901.23
2019-01-08T00:18:54.888Z,100900.91
2019-01-08T00:21:24.329Z,100895.23
2019-01-08T00:23:53.793Z,100886.33
2019-01-08T00:26:23.295Z,100870.22
2019-01-08T00:28:52.702Z,100862.88
2019-01-08T00:31:22.139Z,100866.64
2019-01-08T00:33:51.751Z,100859.77
2019-01-08T00:36:21.191Z,100852.97
2019-01-08T00:38:50.624Z,100859.17
2019-01-08T00:41:20.207Z,100837.88
2019-01-08T00:43:49.679Z,100838.02
2019-01-08T00:46:19.118Z,100834.34
2019-01-08T00:48:48.722Z,100822.14
2019-01-08T00:51:18.126Z,100830.13
2019-01-08T00:53:47.532Z,100820.37
2019-01-08T00:56:17.015Z,100818.66
2019-01-08T00:58:51.474Z,100810.13
2019-01-08T01:01:17.646Z,100808.66
2019-01-08T01:03:47.390Z,100800.59
2019-01-08T01:06:16.858Z,100790.31
2019-01-08T01:08:46.308Z,100792.61
2019-01-08T01:11:15.785Z,100765.33
2019-01-08T01:13:45.239Z,100775.80
2019-01-08T01:16:14.734Z,100758.09
2019-01-08T01:18:44.312Z,100753.45
2019-01-08T01:21:13.744Z,100760.76
2019-01-08T01:23:43.146Z,100735.73
2019-01-08T01:26:12.864Z,100743.70
2019-01-08T01:28:42.840Z,100736.27
2019-01-08T01:31:12.896Z,100727.52
2019-01-08T01:33:42.994Z,100731.51
2019-01-08T01:36:12.863Z,100712.85
2019-01-08T01:38:42.838Z,100707.16
2019-01-08T01:41:12.988Z,100706.07
2019-01-08T01:43:42.842Z,100699.84
2019-01-08T01:46:12.857Z,100698.56
2019-01-08T01:48:43.106Z,100701.07
2019-01-08T01:51:12.920Z,100690.05
2019-01-08T01:53:42.888Z,100668.88
2019-01-08T01:56:13.034Z,100660.08
2019-01-08T01:58:42.894Z,100647.23
2019-01-08T02:01:12.844Z,100648.70
2019-01-08T02:03:43.004Z,100649.20
2019-01-08T02:06:12.886Z,100644.88
2019-01-08T02:08:42.898Z,100651.92
2019-01-08T02:11:13.303Z,100620.91
2019-01-08T02:13:43.342Z,100615.08
2019-01-08T02:16:12.891Z,100606.30
2019-01-08T02:18:43.073Z,100603.80
2019-01-08T02:21:12.946Z,100599.50
2019-01-08T02:23:42.902Z,100606.61
2019-01-08T02:26:13.049Z,100590.56
2019-01-08T02:28:42.928Z,100579.75
2019-01-08T02:31:12.900Z,100578.52
2019-01-08T02:33:43.083Z,100569.43
2019-01-08T02:36:12.913Z,100561.24
2019-01-08T02:38:42.950Z,100553.58
2019-01-08T02:41:13.204Z,100545.39
2019-01-08T02:43:42.941Z,100543.62
2019-01-08T02:46:12.975Z,100540.30
2019-01-08T02:48:43.080Z,100548.08
2019-01-08T02:51:12.932Z,100543.66
2019-01-08T02:53:43.302Z,100557.48
2019-01-08T02:56:13.036Z,100550.91
2019-01-08T02:58:42.965Z,100547.53
2019-01-08T03:01:13.004Z,100531.14
2019-01-08T03:03:43.125Z,100524.65
2019-01-08T03:06:13.024Z,100500.84
2019-01-08T03:08:42.945Z,100484.01
2019-01-08T03:11:13.160Z,100479.59
2019-01-08T03:13:42.989Z,100474.75
2019-01-08T03:16:12.972Z,100458.14
2019-01-08T03:18:43.057Z,100455.02
2019-01-08T03:21:13.004Z,100445.27
2019-01-08T03:23:42.977Z,100440.13
2019-01-08T03:26:13.041Z,100432.08
2019-01-08T03:28:43.813Z,100429.22
2019-01-08T03:31:13.219Z,100406.39
2019-01-08T03:33:43.152Z,100406.33
2019-01-08T03:36:13.002Z,100413.52
2019-01-08T03:38:43.042Z,100397.75
2019-01-08T03:41:13.070Z,100389.32
2019-01-08T03:43:42.993Z,100378.92
2019-01-08T03:46:13.077Z,100362.87
2019-01-08T03:48:43.096Z,100352.94
2019-01-08T03:51:16.071Z,100349.17
2019-01-08T03:53:45.460Z,100340.56
2019-01-08T03:56:14.895Z,100332.70
2019-01-08T03:58:44.499Z,100320.14
2019-01-08T04:01:13.921Z,100320.91
2019-01-08T04:03:43.423Z,100302.02
2019-01-08T04:06:13.124Z,100301.59
2019-01-08T04:08:43.161Z,100301.59
2019-01-08T04:11:13.201Z,100286.27
2019-01-08T04:13:43.071Z,100274.02
2019-01-08T04:16:13.110Z,100260.92
2019-01-08T04:18:43.251Z,100254.80
2019-01-08T04:21:13.085Z,100253.29
2019-01-08T04:23:43.142Z,100235.42
2019-01-08T04:26:13.222Z,100250.27
2019-01-08T04:28:43.144Z,100250.27
2019-01-08T04:31:13.236Z,100233.64
2019-01-08T04:33:43.255Z,100215.95
2019-01-08T04:36:13.202Z,100208.00
2019-01-08T04:38:43.189Z,100206.48
2019-01-08T04:41:13.232Z,100208.22
2019-01-08T04:43:43.172Z,100202.05
2019-01-08T04:46:13.241Z,100200.61
2019-01-08T04:48:43.289Z,100189.23
2019-01-08T04:51:13.280Z,100186.58
2019-01-08T04:53:43.207Z,100184.88
2019-01-08T04:56:13.374Z,100172.08
2019-01-08T04:58:43.211Z,100160.08
2019-01-08T05:01:13.194Z,100161.30
2019-01-08T05:03:43.451Z,100166.21
2019-01-08T05:06:13.243Z,100146.10
2019-01-08T05:08:43.211Z,100139.66
2019-01-08T05:11:13.271Z,100124.39
2019-01-08T05:13:43.657Z,100119.92
2019-01-08T05:16:13.260Z,100130.23
2019-01-08T05:18:43.371Z,100124.20
2019-01-08T05:21:13.232Z,100124.20
2019-01-08T05:23:43.408Z,100109.93
2019-01-08T05:26:13.414Z,100096.30
2019-01-08T05:28:43.344Z,100101.96
2019-01-08T05:31:13.324Z,100091.35
2019-01-08T05:33:43.751Z,100085.95
2019-01-08T05:36:13.298Z,100071.16
2019-01-08T05:38:43.338Z,100065.48
2019-01-08T05:41:13.455Z,100076.95
2019-01-08T05:43:43.343Z,100051.75
2019-01-08T05:46:13.352Z,100061.30
2019-01-08T05:48:43.419Z,100042.37
2019-01-08T05:51:13.362Z,100041.97
2019-01-08T05:53:43.301Z,100046.25
2019-01-08T05:56:13.451Z,100027.58
2019-01-08T05:58:43.317Z,100011.06
2019-01-08T06:01:13.305Z,100034.88
2019-01-08T06:03:43.375Z,100010.33
2019-01-08T06:06:13.367Z,100014.51
2019-01-08T06:08:43.477Z,100011.66
2019-01-08T06:11:13.492Z,99990.83
2019-01-08T06:13:43.342Z,99991.38
2019-01-08T06:16:13.357Z,99991.02
2019-01-08T06:18:43.501Z,99988.27
2019-01-08T06:21:13.417Z,99980.30
2019-01-08T06:23:43.401Z,99975.82
2019-01-08T06:26:13.502Z,99979.92
2019-01-08T06:28:43.857Z,99959.34
2019-01-08T06:31:13.390Z,99962.55
2019-01-08T06:33:43.472Z,99962.30
2019-01-08T06:36:13.432Z,99952.45
2019-01-08T06:38:43.528Z,99948.81
2019-01-08T06:41:13.638Z,99953.59
2019-01-08T06:43:43.497Z,99950.37
2019-01-08T06:46:13.495Z,99941.91
2019-01-08T06:48:44.229Z,99921.94
2019-01-08T06:51:13.701Z,99931.33
2019-01-08T06:53:43.440Z,99936.32
2019-01-08T06:56:14.738Z,99927.60
2019-01-08T06:58:44.222Z,99927.02
2019-01-08T07:01:13.998Z,99926.60
2019-01-08T07:03:43.529Z,99917.91
2019-01-08T07:06:13.479Z,99918.77
2019-01-08T07:08:43.498Z,99908.27
2019-01-08T07:11:13.682Z,99881.93
2019-01-08T07:13:43.649Z,99887.34
2019-01-08T07:16:13.570Z,99895.28
2019-01-08T07:18:43.633Z,99873.19
2019-01-08T07:21:13.518Z,99886.11
2019-01-08T07:23:43.518Z,99870.58
2019-01-08T07:26:13.673Z,99886.69
2019-01-08T07:28:43.593Z,99850.58
2019-01-08T07:31:13.540Z,99871.42
2019-01-08T07:33:43.583Z,99857.01
2019-01-08T07:36:13.533Z,99865.73
2019-01-08T07:38:43.532Z,99858.34
2019-01-08T07:41:13.650Z,99852.93
2019-01-08T07:43:43.519Z,99859.56
2019-01-08T07:46:13.716Z,99860.89
2019-01-08T07:48:43.658Z,99861.27
2019-01-08T07:51:13.574Z,99859.06
2019-01-08T07:53:43.533Z,99860.69
2019-01-08T07:56:13.685Z,99866.95
2019-01-08T07:58:43.568Z,99855.06
2019-01-08T08:01:13.577Z,99866.95
2019-01-08T08:03:43.732Z,99866.48
2019-01-08T08:06:13.587Z,99872.66
2019-01-08T08:08:43.596Z,99875.48
2019-01-08T08:11:13.657Z,99880.25
2019-01-08T08:13:43.595Z,99865.73
2019-01-08T08:16:14.061Z,99890.16
2019-01-08T08:18:44.130Z,99884.64
2019-01-08T08:21:13.749Z,99881.27
2019-01-08T08:23:43.603Z,99881.09
2019-01-08T08:26:14.005Z,99878.98
2019-01-08T08:28:43.640Z,99872.13
2019-01-08T08:31:13.663Z,99886.08
2019-01-08T08:33:43.867Z,99886.08
2019-01-08T08:36:16.501Z,99895.76
2019-01-08T08:38:45.937Z,99887.05
2019-01-08T08:41:17.634Z,99889.13
2019-01-08T08:43:47.130Z,99895.47
2019-01-08T08:46:16.573Z,99905.44
2019-01-08T08:48:48.502Z,99893.50
2019-01-08T08:51:18.909Z,99888.66
2019-01-08T08:53:52.577Z,99904.58
2019-01-08T08:56:22.798Z,99901.72
2019-01-08T08:58:52.530Z,99912.91
2019-01-08T09:01:21.921Z,99908.69
2019-01-08T09:03:53.272Z,99924.54
2019-01-08T09:06:22.721Z,99911.27
2019-01-08T09:08:52.149Z,99906.83
2019-01-08T09:11:21.828Z,99917.05
2019-01-08T09:13:51.089Z,99906.92
2019-01-08T09:16:20.537Z,99915.84
2019-01-08T09:18:50.107Z,99923.63
2019-01-08T09:21:21.758Z,99928.84
2019-01-08T09:23:51.228Z,99933.37
2019-01-08T09:26:21.146Z,99935.06
2019-01-08T09:28:50.655Z,99944.91
2019-01-08T09:31:20.072Z,99937.72
2019-01-08T09:33:49.626Z,99950.66
2019-01-08T09:36:19.015Z,99951.75
2019-01-08T09:38:48.390Z,99950.05
2019-01-08T09:41:17.916Z,99957.36
2019-01-08T09:43:47.289Z,99963.12
2019-01-08T09:46:16.687Z,99963.98
2019-01-08T09:48:46.199Z,99957.23
2019-01-08T09:51:15.602Z,99954.98
2019-01-08T09:53:44.979Z,99972.72
2019-01-08T09:56:14.430Z,99976.11
2019-01-08T09:58:43.898Z,99976.41
2019-01-08T10:01:13.769Z,99976.20
2019-01-08T10:03:43.824Z,99977.82
2019-01-08T10:06:13.841Z,99979.25
2019-01-08T10:08:43.779Z,99981.25
2019-01-08T10:11:13.866Z,99972.64
2019-01-08T10:13:43.807Z,99979.27
2019-01-08T10:16:13.784Z,99980.70
2019-01-08T10:18:43.985Z,99995.47
2019-01-08T10:21:13.779Z,99983.69
2019-01-08T10:23:44.013Z,99997.41
2019-01-08T10:26:13.893Z,100010.80
2019-01-08T10:28:43.816Z,99994.97
2019-01-08T10:31:14.117Z,99999.60
2019-01-08T10:33:43.882Z,99998.17
2019-01-08T10:36:13.850Z,100016.95
2019-01-08T10:38:43.806Z,99993.55
2019-01-08T10:41:14.039Z,100017.92
2019-01-08T10:43:43.844Z,100000.77
2019-01-08T10:46:13.884Z,100008.05
2019-01-08T10:48:43.944Z,99998.64
2019-01-08T10:51:13.871Z,100011.73
2019-01-08T10:53:43.907Z,100009.07
2019-01-08T10:56:13.987Z,100010.33
2019-01-08T10:58:43.902Z,100014.98
2019-01-08T11:01:13.946Z,100008.54
2019-01-08T11:03:43.934Z,100014.51
2019-01-08T11:06:13.932Z,100014.61
2019-01-08T11:08:43.914Z,100018.78
2019-01-08T11:11:14.063Z,100018.78
2019-01-08T11:13:43.938Z,100013.09
2019-01-08T11:16:13.911Z,100013.09
2019-01-08T11:18:43.996Z,100027.01
2019-01-08T11:21:13.928Z,100017.54
2019-01-08T11:23:43.929Z,100014.47
2019-01-08T11:26:14.148Z,100034.14
2019-01-08T11:28:44.093Z,100022.37
2019-01-08T11:31:13.935Z,100027.50
2019-01-08T11:33:44.100Z,100023.91
2019-01-08T11:36:13.945Z,100023.91
2019-01-08T11:38:43.963Z,100018.31
2019-01-08T11:41:14.114Z,100015.47
2019-01-08T11:43:44.002Z,100026.25
2019-01-08T11:46:13.971Z,100016.39
2019-01-08T11:48:44.069Z,100029.09
2019-01-08T11:51:13.974Z,100025.59
2019-01-08T11:53:43.987Z,100025.59
2019-01-08T11:56:14.138Z,100023.59
2019-01-08T11:58:44.030Z,100018.93
2019-01-08T12:01:14.017Z,100023.20
2019-01-08T12:03:44.140Z,100026.12
2019-01-08T12:06:14.042Z,100027.75
2019-01-08T12:08:43.985Z,100013.05
2019-01-08T12:11:15.201Z,100023.97
2019-01-08T12:13:45.964Z,100019.50
2019-01-08T12:16:15.354Z,100018.52
2019-01-08T12:18:46.931Z,100035.03
2019-01-08T12:21:16.017Z,100023.28
2019-01-08T12:23:45.411Z,100023.46
2019-01-08T12:26:14.942Z,100026.61
2019-01-08T12:28:44.382Z,100026.34
2019-01-08T12:31:14.088Z,100019.33
2019-01-08T12:33:44.304Z,100023.84
2019-01-08T12:36:14.034Z,100023.13
2019-01-08T12:38:44.083Z,100014.78
2019-01-08T12:41:14.113Z,100012.45
2019-01-08T12:43:44.129Z,100014.63
2019-01-08T12:46:14.066Z,100013.80
2019-01-08T12:48:44.137Z,100013.53
2019-01-08T12:51:14.077Z,100016.58
2019-01-08T12:53:44.074Z,100019.33
2019-01-08T12:56:14.209Z,100003.86
2019-01-08T12:58:44.082Z,99996.06
2019-01-08T13:01:14.127Z,100012.76
2019-01-08T13:03:44.142Z,100009.16
2019-01-08T13:06:14.124Z,100017.39
2019-01-08T13:08:46.338Z,100012.50
2019-01-08T13:11:15.997Z,100011.47
2019-01-08T13:13:45.382Z,100004.81
2019-01-08T13:16:14.788Z,100018.95
2019-01-08T13:18:44.340Z,100013.05
2019-01-08T13:21:14.105Z,100008.98
2019-01-08T13:23:44.154Z,100012.86
2019-01-08T13:26:14.185Z,100011.82
2019-01-08T13:28:44.161Z,100010.56
2019-01-08T13:31:14.127Z,100019.14
2019-01-08T13:33:44.428Z,100028.33
2019-01-08T13:36:14.207Z,100023.97
2019-01-08T13:38:44.217Z,100030.14
2019-01-08T13:41:14.326Z,100031.97
2019-01-08T13:43:44.155Z,100043.16
2019-01-08T13:46:14.212Z,100049.78
2019-01-08T13:48:44.321Z,100051.19
2019-01-08T13:51:14.169Z,100068.90
2019-01-08T13:53:44.174Z,100060.28
2019-01-08T13:56:14.316Z,100079.22
2019-01-08T13:58:44.196Z,100077.22
2019-01-08T14:01:14.675Z,100072.31
2019-01-08T14:03:44.336Z,100088.03
2019-01-08T14:06:14.307Z,100091.92
2019-01-08T14:08:44.289Z,100093.55
2019-01-08T14:11:14.473Z,100107.73
2019-01-08T14:13:44.302Z,100110.02
2019-01-08T14:16:14.296Z,100124.66
2019-01-08T14:18:44.485Z,100120.47
2019-01-08T14:21:14.359Z,100115.00
2019-01-08T14:23:44.351Z,100121.89
2019-01-08T14:26:14.549Z,100122.67
2019-01-08T14:28:44.328Z,100118.31
2019-01-08T14:31:14.394Z,100124.43
2019-01-08T14:33:44.841Z,100118.44
2019-01-08T14:36:14.520Z,100119.11
2019-01-08T14:38:44.446Z,100123.95
2019-01-08T14:41:14.564Z,100124.60
2019-01-08T14:43:44.418Z,100140.23
2019-01-08T14:46:14.433Z,100143.72
2019-01-08T14:48:44.583Z,100137.34
2019-01-08T14:51:14.437Z,100160.34
2019-01-08T14:53:44.457Z,100166.05
2019-01-08T14:56:14.635Z,100164.16
2019-01-08T14:58:44.501Z,100170.02
2019-01-08T15:01:14.455Z,100180.99
2019-01-08T15:03:44.641Z,100186.58
2019-01-08T15:06:14.512Z,100198.16
2019-01-08T15:08:44.475Z,100193.63
2019-01-08T15:11:14.541Z,100200.81
2019-01-08T15:13:44.512Z,100203.17
2019-01-08T15:16:14.605Z,100202.44
2019-01-08T15:18:44.623Z,100202.44
2019-01-08T15:21:14.595Z,100210.52
2019-01-08T15:23:44.668Z,100216.80
2019-01-08T15:26:14.641Z,100222.41
2019-01-08T15:28:44.600Z,100221.72
2019-01-08T15:31:16.724Z,100219.98
2019-01-08T15:33:45.938Z,100230.62
2019-01-08T15:36:15.751Z,100225.19
2019-01-08T15:38:45.344Z,100231.72
2019-01-08T15:41:14.845Z,100241.95
2019-01-08T15:43:44.781Z,100240.49
2019-01-08T15:46:14.719Z,100244.05
2019-01-08T15:48:44.805Z,100249.34
2019-01-08T15:51:14.666Z,100247.38
2019-01-08T15:53:44.625Z,100261.14
2019-01-08T15:56:14.721Z,100261.14
2019-01-08T15:58:44.687Z,100279.06
2019-01-08T16:01:14.643Z,100272.08
2019-01-08T16:03:44.797Z,100273.12
2019-01-08T16:06:14.667Z,100273.12
2019-01-08T16:08:44.700Z,100271.11
2019-01-08T16:11:14.821Z,100278.93
2019-01-08T16:13:44.747Z,100275.36
2019-01-08T16:16:14.688Z,100277.78
2019-01-08T16:18:44.829Z,100292.72
2019-01-08T16:21:14.685Z,100290.84
2019-01-08T16:23:44.705Z,100294.05
2019-01-08T16:26:14.763Z,100288.12
2019-01-08T16:28:44.702Z,100308.57
2019-01-08T16:31:14.746Z,100292.81
2019-01-08T16:33:44.775Z,100302.41
2019-01-08T16:36:14.694Z,100297.45
2019-01-08T16:38:44.872Z,100307.73
2019-01-08T16:41:14.982Z,100307.73
2019-01-08T16:43:44.729Z,100313.91
2019-01-08T16:46:14.763Z,100316.72
2019-01-08T16:48:44.889Z,100316.72
2019-01-08T16:51:14.755Z,100337.98
2019-01-08T16:53:44.756Z,100326.77
2019-01-08T16:56:14.967Z,100318.30
2019-01-08T16:58:44.832Z,100326.48
2019-01-08T17:01:14.754Z,100327.95
2019-01-08T17:03:44.899Z,100326.55
2019-01-08T17:06:15.008Z,100325.14
2019-01-08T17:08:45.017Z,100334.43
2019-01-08T17:11:15.090Z,100330.61
2019-01-08T17:13:45.044Z,100346.72
2019-01-08T17:16:16.214Z,100345.56
2019-01-08T17:18:45.917Z,100340.02
2019-01-08T17:21:15.402Z,100345.23
2019-01-08T17:23:45.046Z,100354.13
2019-01-08T17:26:15.237Z,100354.13
2019-01-08T17:28:45.093Z,100359.27
2019-01-08T17:31:15.121Z,100357.78
2019-01-08T17:33:45.135Z,100355.14
2019-01-08T17:36:15.940Z,100360.26
2019-01-08T17:38:45.359Z,100366.27
2019-01-08T17:41:15.375Z,100363.23
2019-01-08T17:43:45.281Z,100363.23
2019-01-08T17:46:15.205Z,100364.14
2019-01-08T17:48:46.061Z,100366.05
2019-01-08T17:51:15.443Z,100366.42
2019-01-08T17:53:45.130Z,100373.50
2019-01-08T17:56:15.268Z,100372.55
2019-01-08T17:58:46.700Z,100372.55
2019-01-08T18:01:27.980Z,100381.77
2019-01-08T18:03:57.508Z,100386.33
2019-01-08T18:06:27.296Z,100379.80
2019-01-08T18:08:56.753Z,100380.29
2019-01-08T18:11:26.203Z,100397.75
2019-01-08T18:13:55.600Z,100384.76
2019-01-08T18:16:24.980Z,100393.53
2019-01-08T18:18:54.547Z,100403.66
2019-01-08T18:21:23.980Z,100381.99
2019-01-08T18:23:53.408Z,100383.44
2019-01-08T18:26:23.059Z,100380.63
2019-01-08T18:28:52.473Z,100378.88
2019-01-08T18:31:21.876Z,100379.84
2019-01-08T18:33:51.977Z,100384.34
2019-01-08T18:36:21.743Z,100389.27
2019-01-08T18:38:51.142Z,100401.38
2019-01-08T18:41:20.575Z,100397.87
2019-01-08T18:43:50.058Z,100380.58
2019-01-08T18:46:19.443Z,100389.67
2019-01-08T18:48:49.105Z,100395.59
2019-01-08T18:51:18.564Z,100398.20
2019-01-08T18:53:47.991Z,100397.83
2019-01-08T18:56:17.591Z,100396.34
2019-01-08T18:58:47.000Z,100403.91
2019-01-08T19:01:16.477Z,100401.72
2019-01-08T19:03:46.036Z,100399.86
2019-01-08T19:06:15.472Z,100406.56
2019-01-08T19:09:20.682Z,100415.03
2019-01-08T19:11:50.052Z,100410.65
2019-01-08T19:14:19.764Z,100413.01
2019-01-08T19:16:49.245Z,100419.34
2019-01-08T19:19:18.653Z,100434.64
2019-01-08T19:21:48.033Z,100414.41
2019-01-08T19:24:17.599Z,100422.27
2019-01-08T19:26:47.006Z,100417.61
2019-01-08T19:29:16.448Z,100430.66
2019-01-08T19:31:45.976Z,100441.05
2019-01-08T19:34:15.446Z,100428.44
2019-01-08T19:36:45.450Z,100436.80
2019-01-08T19:39:15.628Z,100433.92
2019-01-08T19:41:45.544Z,100447.86
2019-01-08T19:44:15.502Z,100439.48
2019-01-08T19:46:45.617Z,100448.38
2019-01-08T19:49:15.478Z,100444.91
2019-01-08T19:51:45.692Z,100451.09
2019-01-08T19:54:15.738Z,100456.05
2019-01-08T19:56:45.559Z,100451.55
2019-01-08T19:59:15.525Z,100454.57
2019-01-08T20:01:45.587Z,100460.73
2019-01-08T20:04:17.944Z,100460.30
2019-01-08T20:06:46.713Z,100469.10
2019-01-08T20:09:24.931Z,100466.55
2019-01-08T20:11:47.381Z,100467.42
2019-01-08T20:14:17.285Z,100488.47
2019-01-08T20:16:46.774Z,100486.89
2019-01-08T20:19:16.222Z,100487.15
2019-01-08T20:21:45.633Z,100489.00
2019-01-08T20:24:15.675Z,100491.27
2019-01-08T20:26:45.541Z,100481.82
2019-01-08T20:29:15.576Z,100487.63
2019-01-08T20:31:45.638Z,100482.42
2019-01-08T20:34:15.569Z,100487.29
2019-01-08T20:36:45.568Z,100506.53
2019-01-08T20:39:15.620Z,100501.84
2019-01-08T20:41:45.541Z,100519.02
2019-01-08T20:44:15.554Z,100518.47
2019-01-08T20:46:45.640Z,100510.27
2019-01-08T20:49:15.661Z,100516.36
2019-01-08T20:51:45.563Z,100520.84
2019-01-08T20:54:15.789Z,100505.00
2019-01-08T20:56:45.635Z,100504.80
2019-01-08T20:59:15.591Z,100524.02
2019-01-08T21:01:48.624Z,100526.20
2019-01-08T21:04:18.079Z,100537.53
2019-01-08T21:06:47.630Z,100541.77
2019-01-08T21:09:17.231Z,100541.70
2019-01-08T21:11:46.656Z,100552.47
2019-01-08T21:14:16.145Z,100538.02
2019-01-08T21:16:47.943Z,100541.91
2019-01-08T21:19:16.895Z,100547.53
2019-01-08T21:21:46.356Z,100549.58
2019-01-08T21:24:15.814Z,100549.90
2019-01-08T21:26:45.720Z,100548.86
2019-01-08T21:29:15.719Z,100550.62
2019-01-08T21:31:45.903Z,100550.05
2019-01-08T21:34:15.679Z,100557.19
2019-01-08T21:36:45.666Z,100548.91
2019-01-08T21:39:15.838Z,100548.46
2019-01-08T21:41:45.679Z,100551.77
2019-01-08T21:44:15.662Z,100558.09
2019-01-08T21:46:45.745Z,100558.94
2019-01-08T21:49:15.701Z,100551.88
2019-01-08T21:51:45.679Z,100555.70
2019-01-08T21:54:15.778Z,100555.05
2019-01-08T21:56:45.729Z,100571.17
2019-01-08T21:59:15.693Z,100545.45
2019-01-08T22:01:46.070Z,100561.38
2019-01-08T22:04:15.753Z,100567.45
2019-01-08T22:06:45.781Z,100559.22
2019-01-08T22:09:15.819Z,100561.51
2019-01-08T22:11:45.754Z,100561.47
2019-01-08T22:14:15.841Z,100550.97
2019-01-08T22:16:45.785Z,100559.48
2019-01-08T22:19:15.819Z,100578.95
2019-01-08T22:21:45.906Z,100578.26
2019-01-08T22:24:15.767Z,100568.77
2019-01-08T22:26:45.733Z,100569.43
2019-01-08T22:29:15.778Z,100575.62
2019-01-08T22:31:45.861Z,100566.66
2019-01-08T22:34:15.723Z,100582.26
2019-01-08T22:36:45.742Z,100577.28
2019-01-08T22:39:15.876Z,100592.89
2019-01-08T22:41:45.744Z,100583.30
2019-01-08T22:44:15.762Z,100592.96
2019-01-08T22:46:45.925Z,100586.67
2019-01-08T22:49:16.456Z,100580.00
2019-01-08T22:51:45.817Z,100577.73
2019-01-08T22:54:15.877Z,100599.70
2019-01-08T22:56:45.753Z,100578.36
2019-01-08T22:59:15.791Z,100587.68
2019-01-08T23:01:48.297Z,100573.56
2019-01-08T23:04:18.001Z,100592.27
2019-01-08T23:06:47.407Z,100591.37
2019-01-08T23:09:17.012Z,100589.11
2019-01-08T23:11:46.387Z,100577.56
2019-01-08T23:14:16.776Z,100590.25
2019-01-08T23:16:46.227Z,100596.06
2019-01-08T23:19:15.815Z,100598.66
2019-01-08T23:21:45.830Z,100593.52
2019-01-08T23:24:15.929Z,100596.44
2019-01-08T23:26:45.817Z,100597.27
2019-01-08T23:29:15.821Z,100595.98
2019-01-08T23:31:45.979Z,100597.09
2019-01-08T23:34:15.846Z,100603.59
2019-01-08T23:36:45.923Z,100603.70
2019-01-08T23:39:16.113Z,100607.61
2019-01-08T23:41:45.938Z,100610.34
2019-01-08T23:44:15.953Z,100601.85
2019-01-08T23:46:45.990Z,100618.71
2019-01-08T23:49:15.966Z,100616.73
2019-01-08T23:51:45.971Z,100625.00
2019-01-08T23:54:17.653Z,100626.16
2019-01-08T23:56:48.863Z,100626.30
2019-01-08T23:59:18.275Z,100641.52
